VOZ422 HKMO-HKJK
Flight info
| Callsign | VOZ422 |
|---|---|
| Flight time | 0h 44m |
| Altitude | 24000 |
| Route | NERAG1A UTIKU Q315 UTEPI UTEPI1A |
| Aircraft | B738/M-SDE2E3FGHIRWXY/LB1 |
Departure
| Time | 2026-04-21 18:06 |
|---|---|
| Airport | Moi International Airport (HKMO) |
Arrival
| Time | 2026-04-21 18:50 |
|---|---|
| Airport | Jomo Kenyatta International Airport (HKJK) |
| Time | Latitude | Longitude | Altitude | Speed | Heading |
|---|---|---|---|---|---|
| 2026-04-21 17:37 | -4.03113 | 39.60251 | 204 ft | 0 kts | 118° |
| 2026-04-21 17:56 | -4.03107 | 39.60240 | 213 ft | 4 kts | 117° |
| 2026-04-21 17:56 | -4.03096 | 39.60216 | 210 ft | 4 kts | 108° |
| 2026-04-21 17:56 | -4.03091 | 39.60190 | 212 ft | 4 kts | 88° |
| 2026-04-21 17:56 | -4.03098 | 39.60169 | 212 ft | 3 kts | 32° |
| 2026-04-21 17:57 | -4.03100 | 39.60167 | 211 ft | 1 kts | 28° |
| 2026-04-21 17:59 | -4.03098 | 39.60168 | 212 ft | 1 kts | 28° |
| 2026-04-21 17:59 | -4.03083 | 39.60177 | 206 ft | 3 kts | 28° |
| 2026-04-21 18:00 | -4.03060 | 39.60189 | 209 ft | 5 kts | 28° |
| 2026-04-21 18:00 | -4.03021 | 39.60211 | 209 ft | 8 kts | 28° |
| 2026-04-21 18:00 | -4.02962 | 39.60222 | 204 ft | 10 kts | 342° |
| 2026-04-21 18:00 | -4.02917 | 39.60171 | 210 ft | 10 kts | 300° |
| 2026-04-21 18:01 | -4.02884 | 39.60111 | 213 ft | 10 kts | 299° |
| 2026-04-21 18:01 | -4.02852 | 39.60052 | 207 ft | 9 kts | 299° |
| 2026-04-21 18:01 | -4.02808 | 39.60008 | 207 ft | 9 kts | 340° |
| 2026-04-21 18:01 | -4.02755 | 39.60023 | 208 ft | 9 kts | 38° |
| 2026-04-21 18:02 | -4.02685 | 39.60076 | 207 ft | 17 kts | 31° |
| 2026-04-21 18:02 | -4.02570 | 39.60141 | 206 ft | 20 kts | 30° |
| 2026-04-21 18:02 | -4.02450 | 39.60208 | 206 ft | 19 kts | 29° |
| 2026-04-21 18:02 | -4.02337 | 39.60271 | 206 ft | 19 kts | 29° |
| 2026-04-21 18:03 | -4.02225 | 39.60334 | 207 ft | 18 kts | 29° |
| 2026-04-21 18:03 | -4.02119 | 39.60393 | 208 ft | 17 kts | 29° |
| 2026-04-21 18:03 | -4.02016 | 39.60451 | 204 ft | 17 kts | 30° |
| 2026-04-21 18:03 | -4.01917 | 39.60507 | 209 ft | 16 kts | 27° |
| 2026-04-21 18:04 | -4.01822 | 39.60560 | 211 ft | 15 kts | 28° |
| 2026-04-21 18:04 | -4.01729 | 39.60611 | 204 ft | 15 kts | 28° |
| 2026-04-21 18:04 | -4.01626 | 39.60669 | 205 ft | 19 kts | 27° |
| 2026-04-21 18:04 | -4.01503 | 39.60730 | 210 ft | 19 kts | 17° |
| 2026-04-21 18:05 | -4.01392 | 39.60720 | 204 ft | 13 kts | 335° |
| 2026-04-21 18:05 | -4.01336 | 39.60657 | 210 ft | 12 kts | 290° |
| 2026-04-21 18:05 | -4.01393 | 39.60598 | 205 ft | 23 kts | 209° |
| 2026-04-21 18:05 | -4.01765 | 39.60392 | 206 ft | 98 kts | 209° |
| 2026-04-21 18:06 | -4.02552 | 39.59968 | 257 ft | 151 kts | 206° |
| 2026-04-21 18:06 | -4.03513 | 39.59448 | 838 ft | 162 kts | 207° |
| 2026-04-21 18:06 | -4.04433 | 39.58899 | 1740 ft | 153 kts | 219° |
| 2026-04-21 18:06 | -4.04826 | 39.57880 | 2438 ft | 176 kts | 269° |
| 2026-04-21 18:07 | -4.04561 | 39.56552 | 2780 ft | 212 kts | 279° |
| 2026-04-21 18:07 | -4.04192 | 39.55022 | 3002 ft | 240 kts | 279° |
| 2026-04-21 18:07 | -4.03777 | 39.53302 | 3222 ft | 267 kts | 280° |
| 2026-04-21 18:07 | -4.03342 | 39.51480 | 3900 ft | 276 kts | 281° |
| 2026-04-21 18:08 | -4.02903 | 39.49623 | 4907 ft | 274 kts | 281° |
| 2026-04-21 18:08 | -4.02464 | 39.47731 | 5692 ft | 283 kts | 281° |
| 2026-04-21 18:08 | -4.02020 | 39.45794 | 6666 ft | 285 kts | 281° |
| 2026-04-21 18:08 | -4.01577 | 39.43845 | 7555 ft | 290 kts | 281° |
| 2026-04-21 18:09 | -4.01126 | 39.41853 | 8404 ft | 296 kts | 282° |
| 2026-04-21 18:09 | -4.00667 | 39.39829 | 9307 ft | 300 kts | 282° |
| 2026-04-21 18:09 | -4.00273 | 39.38497 | 9884 ft | 304 kts | 294° |
| 2026-04-21 18:09 | -3.98566 | 39.36167 | 10589 ft | 326 kts | 313° |
| 2026-04-21 18:10 | -3.96928 | 39.34463 | 10809 ft | 352 kts | 315° |
| 2026-04-21 18:10 | -3.95168 | 39.32697 | 11343 ft | 363 kts | 315° |
| 2026-04-21 18:10 | -3.93370 | 39.30897 | 12048 ft | 368 kts | 315° |
| 2026-04-21 18:10 | -3.91556 | 39.29068 | 12800 ft | 372 kts | 315° |
| 2026-04-21 18:11 | -3.89730 | 39.27212 | 13555 ft | 375 kts | 315° |
| 2026-04-21 18:11 | -3.87892 | 39.25335 | 14204 ft | 380 kts | 315° |
| 2026-04-21 18:11 | -3.86036 | 39.23431 | 14823 ft | 385 kts | 315° |
| 2026-04-21 18:11 | -3.84160 | 39.21502 | 15456 ft | 389 kts | 315° |
| 2026-04-21 18:12 | -3.82263 | 39.19549 | 16096 ft | 392 kts | 315° |
| 2026-04-21 18:12 | -3.80354 | 39.17582 | 16706 ft | 396 kts | 315° |
| 2026-04-21 18:12 | -3.78423 | 39.15593 | 17302 ft | 400 kts | 315° |
| 2026-04-21 18:12 | -3.76467 | 39.13578 | 17905 ft | 404 kts | 315° |
| 2026-04-21 18:13 | -3.74499 | 39.11550 | 18450 ft | 408 kts | 315° |
| 2026-04-21 18:13 | -3.72512 | 39.09503 | 18946 ft | 411 kts | 315° |
| 2026-04-21 18:13 | -3.70511 | 39.07442 | 19462 ft | 415 kts | 315° |
| 2026-04-21 18:13 | -3.68516 | 39.05388 | 19940 ft | 418 kts | 315° |
| 2026-04-21 18:14 | -3.64429 | 39.01179 | 20899 ft | 425 kts | 315° |
| 2026-04-21 18:14 | -3.62364 | 38.99053 | 21368 ft | 428 kts | 315° |
| 2026-04-21 18:14 | -3.60280 | 38.96907 | 21826 ft | 431 kts | 315° |
| 2026-04-21 18:15 | -3.58183 | 38.94748 | 22285 ft | 434 kts | 315° |
| 2026-04-21 18:15 | -3.56067 | 38.92569 | 22732 ft | 437 kts | 315° |
| 2026-04-21 18:15 | -3.53937 | 38.90376 | 23157 ft | 440 kts | 315° |
| 2026-04-21 18:15 | -3.51819 | 38.88196 | 23558 ft | 443 kts | 315° |
| 2026-04-21 18:16 | -3.49664 | 38.85978 | 23918 ft | 446 kts | 315° |
| 2026-04-21 18:16 | -3.47498 | 38.83746 | 24316 ft | 447 kts | 315° |
| 2026-04-21 18:16 | -3.45332 | 38.81511 | 24710 ft | 447 kts | 315° |
| 2026-04-21 18:16 | -3.43162 | 38.79267 | 25078 ft | 449 kts | 315° |
| 2026-04-21 18:17 | -3.40979 | 38.77012 | 25427 ft | 451 kts | 315° |
| 2026-04-21 18:17 | -3.38795 | 38.74754 | 25770 ft | 453 kts | 315° |
| 2026-04-21 18:17 | -3.36597 | 38.72482 | 26135 ft | 454 kts | 315° |
| 2026-04-21 18:17 | -3.34431 | 38.70242 | 27050 ft | 439 kts | 316° |
| 2026-04-21 18:18 | -3.32353 | 38.68091 | 28188 ft | 421 kts | 316° |
| 2026-04-21 18:18 | -3.30357 | 38.66025 | 29282 ft | 405 kts | 316° |
| 2026-04-21 18:18 | -3.28406 | 38.64008 | 29777 ft | 402 kts | 316° |
| 2026-04-21 18:18 | -3.26470 | 38.62009 | 29962 ft | 398 kts | 316° |
| 2026-04-21 18:19 | -3.24546 | 38.60024 | 29950 ft | 395 kts | 316° |
| 2026-04-21 18:19 | -3.20751 | 38.56107 | 29959 ft | 391 kts | 316° |
| 2026-04-21 18:20 | -3.16971 | 38.52205 | 29959 ft | 390 kts | 316° |
| 2026-04-21 18:20 | -3.13210 | 38.48322 | 29961 ft | 391 kts | 316° |
| 2026-04-21 18:21 | -3.09418 | 38.44408 | 29958 ft | 391 kts | 316° |
| 2026-04-21 18:21 | -3.05628 | 38.40496 | 29958 ft | 392 kts | 316° |
| 2026-04-21 18:22 | -3.01832 | 38.36577 | 29953 ft | 393 kts | 316° |
| 2026-04-21 18:22 | -2.97927 | 38.32550 | 29975 ft | 414 kts | 316° |
| 2026-04-21 18:23 | -2.93847 | 38.28343 | 29979 ft | 433 kts | 316° |
| 2026-04-21 18:23 | -2.89573 | 38.23933 | 29979 ft | 449 kts | 316° |
| 2026-04-21 18:24 | -2.85175 | 38.19393 | 29973 ft | 457 kts | 316° |
| 2026-04-21 18:24 | -2.80740 | 38.14813 | 29967 ft | 457 kts | 316° |
| 2026-04-21 18:25 | -2.76317 | 38.10248 | 29969 ft | 456 kts | 316° |
| 2026-04-21 18:25 | -2.72656 | 38.06471 | 29974 ft | 454 kts | 316° |
| 2026-04-21 18:26 | -2.67550 | 38.01206 | 29989 ft | 453 kts | 316° |
| 2026-04-21 18:26 | -2.63897 | 37.97437 | 29980 ft | 446 kts | 316° |
| 2026-04-21 18:27 | -2.58884 | 37.92269 | 30002 ft | 447 kts | 316° |
| 2026-04-21 18:27 | -2.55242 | 37.88515 | 29518 ft | 446 kts | 316° |
| 2026-04-21 18:27 | -2.53092 | 37.86298 | 29030 ft | 441 kts | 316° |
| 2026-04-21 18:28 | -2.50968 | 37.84107 | 28546 ft | 437 kts | 316° |
| 2026-04-21 18:28 | -2.48885 | 37.81960 | 28052 ft | 434 kts | 316° |
| 2026-04-21 18:28 | -2.46794 | 37.79804 | 27558 ft | 430 kts | 316° |
| 2026-04-21 18:28 | -2.44719 | 37.77664 | 27071 ft | 427 kts | 315° |
| 2026-04-21 18:29 | -2.42653 | 37.75535 | 26593 ft | 424 kts | 315° |
| 2026-04-21 18:29 | -2.40606 | 37.73426 | 26114 ft | 421 kts | 315° |
| 2026-04-21 18:29 | -2.38572 | 37.71330 | 25641 ft | 419 kts | 315° |
| 2026-04-21 18:29 | -2.36542 | 37.69238 | 25137 ft | 417 kts | 315° |
| 2026-04-21 18:30 | -2.34526 | 37.67160 | 24660 ft | 416 kts | 315° |
| 2026-04-21 18:30 | -2.32515 | 37.65088 | 24183 ft | 415 kts | 315° |
| 2026-04-21 18:30 | -2.30510 | 37.63022 | 23701 ft | 414 kts | 315° |
| 2026-04-21 18:30 | -2.28508 | 37.60960 | 23154 ft | 413 kts | 315° |
| 2026-04-21 18:31 | -2.26513 | 37.58904 | 22650 ft | 410 kts | 315° |
| 2026-04-21 18:31 | -2.24536 | 37.56867 | 22175 ft | 407 kts | 315° |
| 2026-04-21 18:31 | -2.22599 | 37.54870 | 21706 ft | 404 kts | 315° |
| 2026-04-21 18:31 | -2.20623 | 37.52834 | 21237 ft | 401 kts | 315° |
| 2026-04-21 18:32 | -2.18716 | 37.50869 | 20780 ft | 398 kts | 315° |
| 2026-04-21 18:32 | -2.16792 | 37.48887 | 20326 ft | 395 kts | 315° |
| 2026-04-21 18:32 | -2.14883 | 37.46919 | 19858 ft | 394 kts | 315° |
| 2026-04-21 18:32 | -2.12980 | 37.44960 | 19408 ft | 391 kts | 315° |
| 2026-04-21 18:33 | -2.11085 | 37.43009 | 18940 ft | 390 kts | 315° |
| 2026-04-21 18:33 | -2.09206 | 37.41056 | 18480 ft | 390 kts | 315° |
| 2026-04-21 18:33 | -2.07343 | 37.39082 | 17980 ft | 388 kts | 315° |
| 2026-04-21 18:33 | -2.05494 | 37.37115 | 17499 ft | 386 kts | 315° |
| 2026-04-21 18:34 | -2.03694 | 37.35127 | 17034 ft | 384 kts | 308° |
| 2026-04-21 18:34 | -2.02404 | 37.32825 | 16805 ft | 375 kts | 296° |
| 2026-04-21 18:34 | -2.01325 | 37.30480 | 16554 ft | 368 kts | 295° |
| 2026-04-21 18:34 | -2.00283 | 37.28160 | 16328 ft | 363 kts | 295° |
| 2026-04-21 18:35 | -1.99599 | 37.26638 | 16182 ft | 361 kts | 295° |
| 2026-04-21 18:35 | -1.98212 | 37.23580 | 15872 ft | 363 kts | 295° |
| 2026-04-21 18:35 | -1.97155 | 37.21276 | 15641 ft | 366 kts | 296° |
| 2026-04-21 18:35 | -1.96088 | 37.18965 | 15408 ft | 366 kts | 296° |
| 2026-04-21 18:36 | -1.95025 | 37.16669 | 15174 ft | 361 kts | 296° |
| 2026-04-21 18:36 | -1.94000 | 37.14459 | 15095 ft | 349 kts | 296° |
| 2026-04-21 18:36 | -1.92999 | 37.12303 | 15073 ft | 335 kts | 296° |
| 2026-04-21 18:36 | -1.92024 | 37.10204 | 14985 ft | 325 kts | 296° |
| 2026-04-21 18:37 | -1.91082 | 37.08179 | 14627 ft | 326 kts | 296° |
| 2026-04-21 18:37 | -1.90119 | 37.06111 | 14272 ft | 327 kts | 296° |
| 2026-04-21 18:37 | -1.89178 | 37.04086 | 14238 ft | 316 kts | 296° |
| 2026-04-21 18:37 | -1.88266 | 37.02125 | 14109 ft | 308 kts | 296° |
| 2026-04-21 18:38 | -1.87358 | 37.00173 | 13713 ft | 312 kts | 296° |
| 2026-04-21 18:38 | -1.86442 | 36.98206 | 13382 ft | 312 kts | 296° |
| 2026-04-21 18:38 | -1.85492 | 36.96267 | 13145 ft | 310 kts | 304° |
| 2026-04-21 18:38 | -1.84098 | 36.94664 | 13102 ft | 302 kts | 318° |
| 2026-04-21 18:39 | -1.82586 | 36.93257 | 13076 ft | 290 kts | 320° |
| 2026-04-21 18:39 | -1.81127 | 36.91931 | 13066 ft | 278 kts | 320° |
| 2026-04-21 18:39 | -1.79711 | 36.90649 | 13071 ft | 272 kts | 320° |
| 2026-04-21 18:39 | -1.78314 | 36.89385 | 13092 ft | 270 kts | 320° |
| 2026-04-21 18:40 | -1.76921 | 36.88126 | 13075 ft | 270 kts | 320° |
| 2026-04-21 18:40 | -1.75551 | 36.86887 | 13078 ft | 269 kts | 320° |
| 2026-04-21 18:40 | -1.74618 | 36.86043 | 12976 ft | 267 kts | 320° |
| 2026-04-21 18:40 | -1.72806 | 36.84400 | 12545 ft | 264 kts | 320° |
| 2026-04-21 18:41 | -1.71445 | 36.83164 | 12135 ft | 265 kts | 320° |
| 2026-04-21 18:41 | -1.70072 | 36.81917 | 11745 ft | 266 kts | 320° |
| 2026-04-21 18:41 | -1.68707 | 36.80673 | 11400 ft | 265 kts | 320° |
| 2026-04-21 18:41 | -1.67354 | 36.79437 | 11110 ft | 262 kts | 320° |
| 2026-04-21 18:42 | -1.66009 | 36.78208 | 10754 ft | 262 kts | 320° |
| 2026-04-21 18:42 | -1.64668 | 36.76983 | 10463 ft | 261 kts | 320° |
| 2026-04-21 18:42 | -1.63326 | 36.75760 | 10263 ft | 259 kts | 320° |
| 2026-04-21 18:42 | -1.61999 | 36.74550 | 10069 ft | 256 kts | 320° |
| 2026-04-21 18:43 | -1.60682 | 36.73352 | 9835 ft | 256 kts | 320° |
| 2026-04-21 18:43 | -1.59372 | 36.72164 | 9708 ft | 251 kts | 320° |
| 2026-04-21 18:43 | -1.58089 | 36.70999 | 9684 ft | 248 kts | 320° |
| 2026-04-21 18:43 | -1.56682 | 36.70048 | 9636 ft | 246 kts | 345° |
| 2026-04-21 18:44 | -1.55004 | 36.69916 | 9641 ft | 244 kts | 16° |
| 2026-04-21 18:44 | -1.53380 | 36.70435 | 9669 ft | 246 kts | 24° |
| 2026-04-21 18:44 | -1.51773 | 36.71033 | 9647 ft | 247 kts | 24° |
| 2026-04-21 18:44 | -1.50180 | 36.71663 | 9631 ft | 243 kts | 25° |
| 2026-04-21 18:45 | -1.48637 | 36.72286 | 9610 ft | 236 kts | 25° |
| 2026-04-21 18:45 | -1.47126 | 36.72901 | 9594 ft | 232 kts | 27° |
| 2026-04-21 18:45 | -1.45889 | 36.73831 | 9449 ft | 218 kts | 50° |
| 2026-04-21 18:45 | -1.44927 | 36.74962 | 9192 ft | 214 kts | 53° |
| 2026-04-21 18:46 | -1.44031 | 36.76125 | 8937 ft | 209 kts | 56° |
| 2026-04-21 18:46 | -1.43178 | 36.77288 | 8667 ft | 206 kts | 56° |
| 2026-04-21 18:46 | -1.42347 | 36.78435 | 8387 ft | 201 kts | 55° |
| 2026-04-21 18:46 | -1.41538 | 36.79545 | 8158 ft | 196 kts | 57° |
| 2026-04-21 18:47 | -1.40757 | 36.80621 | 7912 ft | 185 kts | 56° |
| 2026-04-21 18:47 | -1.40024 | 36.81630 | 7688 ft | 174 kts | 56° |
| 2026-04-21 18:47 | -1.39331 | 36.82595 | 7462 ft | 169 kts | 58° |
| 2026-04-21 18:47 | -1.38653 | 36.83529 | 7300 ft | 163 kts | 56° |
| 2026-04-21 18:48 | -1.37978 | 36.84446 | 7074 ft | 162 kts | 55° |
| 2026-04-21 18:48 | -1.37335 | 36.85330 | 6862 ft | 153 kts | 55° |
| 2026-04-21 18:48 | -1.36714 | 36.86190 | 6677 ft | 156 kts | 56° |
| 2026-04-21 18:48 | -1.36089 | 36.87049 | 6487 ft | 153 kts | 57° |
| 2026-04-21 18:49 | -1.35467 | 36.87906 | 6367 ft | 157 kts | 57° |
| 2026-04-21 18:49 | -1.34815 | 36.88804 | 6107 ft | 159 kts | 55° |
| 2026-04-21 18:49 | -1.34373 | 36.89387 | 5917 ft | 158 kts | 53° |
| 2026-04-21 18:49 | -1.33547 | 36.90550 | 5642 ft | 151 kts | 55° |
| 2026-04-21 18:50 | -1.32933 | 36.91403 | 5443 ft | 151 kts | 53° |
| 2026-04-21 18:50 | -1.32336 | 36.92210 | 5313 ft | 128 kts | 54° |
| 2026-04-21 18:50 | -1.31945 | 36.92751 | 5315 ft | 67 kts | 54° |
| 2026-04-21 18:50 | -1.31757 | 36.93004 | 5309 ft | 38 kts | 54° |
| 2026-04-21 18:51 | -1.31612 | 36.93206 | 5304 ft | 27 kts | 54° |
| 2026-04-21 18:51 | -1.31617 | 36.93363 | 5306 ft | 25 kts | 136° |
| 2026-04-21 18:51 | -1.31730 | 36.93448 | 5307 ft | 19 kts | 145° |
| 2026-04-21 18:51 | -1.31817 | 36.93472 | 5304 ft | 13 kts | 214° |
| 2026-04-21 18:52 | -1.31877 | 36.93405 | 5310 ft | 13 kts | 227° |
| 2026-04-21 18:52 | -1.31928 | 36.93334 | 5307 ft | 13 kts | 235° |
| 2026-04-21 18:52 | -1.31980 | 36.93261 | 5314 ft | 14 kts | 231° |
| 2026-04-21 18:52 | -1.32049 | 36.93169 | 5315 ft | 19 kts | 237° |
| 2026-04-21 18:53 | -1.32129 | 36.93057 | 5317 ft | 20 kts | 237° |
| 2026-04-21 18:53 | -1.32212 | 36.92945 | 5319 ft | 20 kts | 233° |
| 2026-04-21 18:53 | -1.32290 | 36.92835 | 5316 ft | 19 kts | 233° |
| 2026-04-21 18:53 | -1.32367 | 36.92730 | 5320 ft | 18 kts | 233° |
| 2026-04-21 18:54 | -1.32442 | 36.92629 | 5323 ft | 18 kts | 233° |
| 2026-04-21 18:54 | -1.32515 | 36.92531 | 5323 ft | 17 kts | 233° |
| 2026-04-21 18:54 | -1.32583 | 36.92435 | 5322 ft | 17 kts | 233° |
| 2026-04-21 18:54 | -1.32651 | 36.92356 | 5320 ft | 13 kts | 205° |
| 2026-04-21 18:55 | -1.32707 | 36.92366 | 5320 ft | 13 kts | 150° |
| 2026-04-21 18:55 | -1.32769 | 36.92437 | 5319 ft | 10 kts | 95° |
| 2026-04-21 18:55 | -1.32765 | 36.92503 | 5316 ft | 9 kts | 89° |
| 2026-04-21 18:55 | -1.32773 | 36.92567 | 5321 ft | 9 kts | 104° |
| 2026-04-21 18:56 | -1.32793 | 36.92626 | 5319 ft | 9 kts | 115° |
| 2026-04-21 18:56 | -1.32833 | 36.92637 | 5323 ft | 4 kts | 219° |
| 2026-04-21 18:56 | -1.32858 | 36.92619 | 5315 ft | 4 kts | 217° |
| 2026-04-21 18:56 | -1.32877 | 36.92608 | 5323 ft | 2 kts | 211° |
| 2026-04-21 18:57 | -1.32883 | 36.92604 | 5321 ft | 0 kts | 211° |